sensor_id;sensor_type;location;lat;lon;timestamp;P1;durP1;ratioP1;P2;durP2;ratioP2
30010;SDS011;16851;53.564;8.112;2023-02-08T00:04:32;53.83;;;28.67;;
30010;SDS011;16851;53.564;8.112;2023-02-08T00:09:36;48.47;;;27.90;;
30010;SDS011;16851;53.564;8.112;2023-02-08T00:14:43;49.77;;;28.60;;
30010;SDS011;16851;53.564;8.112;2023-02-08T00:19:45;54.13;;;29.63;;
30010;SDS011;16851;53.564;8.112;2023-02-08T00:24:48;49.10;;;31.50;;
30010;SDS011;16851;53.564;8.112;2023-02-08T00:29:53;48.47;;;30.13;;
30010;SDS011;16851;53.564;8.112;2023-02-08T00:34:55;59.53;;;36.67;;
30010;SDS011;16851;53.564;8.112;2023-02-08T00:40:00;50.63;;;30.93;;
30010;SDS011;16851;53.564;8.112;2023-02-08T00:45:03;58.20;;;37.47;;
30010;SDS011;16851;53.564;8.112;2023-02-08T00:50:05;45.87;;;28.53;;
30010;SDS011;16851;53.564;8.112;2023-02-08T00:55:18;42.33;;;28.03;;
30010;SDS011;16851;53.564;8.112;2023-02-08T01:00:20;42.53;;;26.67;;
30010;SDS011;16851;53.564;8.112;2023-02-08T01:05:27;40.63;;;26.53;;
30010;SDS011;16851;53.564;8.112;2023-02-08T01:10:31;47.50;;;29.17;;
30010;SDS011;16851;53.564;8.112;2023-02-08T01:15:38;44.53;;;28.77;;
30010;SDS011;16851;53.564;8.112;2023-02-08T01:20:45;45.20;;;28.97;;
30010;SDS011;16851;53.564;8.112;2023-02-08T01:25:49;54.97;;;30.97;;
30010;SDS011;16851;53.564;8.112;2023-02-08T01:30:51;51.77;;;32.07;;
30010;SDS011;16851;53.564;8.112;2023-02-08T01:35:54;51.13;;;32.33;;
30010;SDS011;16851;53.564;8.112;2023-02-08T01:40:56;43.97;;;29.00;;
30010;SDS011;16851;53.564;8.112;2023-02-08T01:46:00;44.60;;;28.97;;
30010;SDS011;16851;53.564;8.112;2023-02-08T01:51:15;43.27;;;28.33;;
30010;SDS011;16851;53.564;8.112;2023-02-08T01:56:33;43.43;;;28.13;;
30010;SDS011;16851;53.564;8.112;2023-02-08T02:01:37;48.73;;;28.53;;
30010;SDS011;16851;53.564;8.112;2023-02-08T02:06:42;50.17;;;31.53;;
30010;SDS011;16851;53.564;8.112;2023-02-08T02:11:49;45.27;;;29.50;;
30010;SDS011;16851;53.564;8.112;2023-02-08T02:16:52;45.27;;;29.10;;
30010;SDS011;16851;53.564;8.112;2023-02-08T02:54:17;52.10;;;32.13;;
30010;SDS011;16851;53.564;8.112;2023-02-08T02:59:22;67.80;;;38.13;;
30010;SDS011;16851;53.564;8.112;2023-02-08T03:20:17;64.97;;;36.23;;
30010;SDS011;16851;53.564;8.112;2023-02-08T03:25:24;51.40;;;31.43;;
30010;SDS011;16851;53.564;8.112;2023-02-08T03:30:35;55.17;;;32.67;;
30010;SDS011;16851;53.564;8.112;2023-02-08T03:35:54;55.97;;;33.33;;
30010;SDS011;16851;53.564;8.112;2023-02-08T03:41:12;70.30;;;39.97;;
30010;SDS011;16851;53.564;8.112;2023-02-08T03:46:23;56.43;;;34.93;;
30010;SDS011;16851;53.564;8.112;2023-02-08T03:51:33;55.23;;;33.00;;
30010;SDS011;16851;53.564;8.112;2023-02-08T04:02:15;55.10;;;33.27;;
30010;SDS011;16851;53.564;8.112;2023-02-08T04:07:21;54.07;;;32.00;;
30010;SDS011;16851;53.564;8.112;2023-02-08T04:12:23;59.17;;;35.53;;
30010;SDS011;16851;53.564;8.112;2023-02-08T04:17:28;53.50;;;32.37;;
30010;SDS011;16851;53.564;8.112;2023-02-08T04:22:29;51.80;;;32.33;;
30010;SDS011;16851;53.564;8.112;2023-02-08T04:27:31;60.37;;;36.13;;
30010;SDS011;16851;53.564;8.112;2023-02-08T04:32:38;60.17;;;36.83;;
30010;SDS011;16851;53.564;8.112;2023-02-08T04:37:40;60.20;;;36.27;;
30010;SDS011;16851;53.564;8.112;2023-02-08T04:42:46;77.47;;;42.77;;
30010;SDS011;16851;53.564;8.112;2023-02-08T04:47:49;55.73;;;33.10;;
30010;SDS011;16851;53.564;8.112;2023-02-08T04:52:51;77.20;;;42.67;;
30010;SDS011;16851;53.564;8.112;2023-02-08T04:57:53;84.60;;;44.50;;
30010;SDS011;16851;53.564;8.112;2023-02-08T05:02:55;70.00;;;38.97;;
30010;SDS011;16851;53.564;8.112;2023-02-08T05:08:00;80.70;;;42.37;;
30010;SDS011;16851;53.564;8.112;2023-02-08T05:13:06;64.47;;;38.60;;
30010;SDS011;16851;53.564;8.112;2023-02-08T05:18:08;65.73;;;40.03;;
30010;SDS011;16851;53.564;8.112;2023-02-08T05:23:10;76.03;;;42.30;;
30010;SDS011;16851;53.564;8.112;2023-02-08T05:28:13;70.67;;;41.73;;
30010;SDS011;16851;53.564;8.112;2023-02-08T05:33:15;71.17;;;41.57;;
30010;SDS011;16851;53.564;8.112;2023-02-08T05:38:20;59.20;;;34.80;;
30010;SDS011;16851;53.564;8.112;2023-02-08T05:43:22;67.23;;;40.20;;
30010;SDS011;16851;53.564;8.112;2023-02-08T05:48:26;71.30;;;39.63;;
30010;SDS011;16851;53.564;8.112;2023-02-08T05:53:30;74.87;;;42.53;;
30010;SDS011;16851;53.564;8.112;2023-02-08T05:58:32;66.07;;;39.73;;
30010;SDS011;16851;53.564;8.112;2023-02-08T06:03:39;65.90;;;39.37;;
30010;SDS011;16851;53.564;8.112;2023-02-08T06:08:41;65.17;;;38.33;;
30010;SDS011;16851;53.564;8.112;2023-02-08T06:13:46;70.60;;;41.63;;
30010;SDS011;16851;53.564;8.112;2023-02-08T06:18:48;63.13;;;37.43;;
30010;SDS011;16851;53.564;8.112;2023-02-08T06:23:54;60.70;;;34.90;;
30010;SDS011;16851;53.564;8.112;2023-02-08T06:28:59;60.53;;;35.40;;
30010;SDS011;16851;53.564;8.112;2023-02-08T06:34:01;57.87;;;33.33;;
30010;SDS011;16851;53.564;8.112;2023-02-08T06:39:02;51.13;;;31.23;;
30010;SDS011;16851;53.564;8.112;2023-02-08T06:44:11;52.00;;;32.50;;
30010;SDS011;16851;53.564;8.112;2023-02-08T06:49:15;50.80;;;31.17;;
30010;SDS011;16851;53.564;8.112;2023-02-08T06:54:17;56.67;;;37.77;;
30010;SDS011;16851;53.564;8.112;2023-02-08T06:59:22;52.30;;;32.17;;
30010;SDS011;16851;53.564;8.112;2023-02-08T07:04:29;52.23;;;31.20;;
30010;SDS011;16851;53.564;8.112;2023-02-08T07:09:32;57.43;;;34.07;;
30010;SDS011;16851;53.564;8.112;2023-02-08T07:14:38;53.37;;;31.33;;
30010;SDS011;16851;53.564;8.112;2023-02-08T07:19:41;54.67;;;31.87;;
30010;SDS011;16851;53.564;8.112;2023-02-08T07:24:47;53.00;;;30.57;;
30010;SDS011;16851;53.564;8.112;2023-02-08T07:29:51;58.47;;;32.97;;
30010;SDS011;16851;53.564;8.112;2023-02-08T07:34:56;52.20;;;31.10;;
30010;SDS011;16851;53.564;8.112;2023-02-08T07:39:58;52.03;;;29.73;;
30010;SDS011;16851;53.564;8.112;2023-02-08T07:45:03;59.30;;;36.47;;
30010;SDS011;16851;53.564;8.112;2023-02-08T07:50:08;69.47;;;37.70;;
30010;SDS011;16851;53.564;8.112;2023-02-08T07:55:10;54.13;;;32.73;;
30010;SDS011;16851;53.564;8.112;2023-02-08T08:00:20;48.73;;;29.87;;
30010;SDS011;16851;53.564;8.112;2023-02-08T08:05:24;55.90;;;34.37;;
30010;SDS011;16851;53.564;8.112;2023-02-08T08:10:28;58.77;;;34.90;;
30010;SDS011;16851;53.564;8.112;2023-02-08T08:15:32;46.03;;;29.17;;
30010;SDS011;16851;53.564;8.112;2023-02-08T08:20:34;46.03;;;27.70;;
30010;SDS011;16851;53.564;8.112;2023-02-08T08:25:41;48.87;;;28.90;;
30010;SDS011;16851;53.564;8.112;2023-02-08T08:30:46;42.67;;;25.60;;
30010;SDS011;16851;53.564;8.112;2023-02-08T08:35:48;44.60;;;27.67;;
30010;SDS011;16851;53.564;8.112;2023-02-08T08:40:50;41.33;;;25.90;;
30010;SDS011;16851;53.564;8.112;2023-02-08T08:45:57;41.57;;;25.60;;
30010;SDS011;16851;53.564;8.112;2023-02-08T08:51:01;37.93;;;24.90;;
30010;SDS011;16851;53.564;8.112;2023-02-08T08:56:07;36.03;;;24.23;;
30010;SDS011;16851;53.564;8.112;2023-02-08T09:01:11;41.30;;;24.47;;
30010;SDS011;16851;53.564;8.112;2023-02-08T09:06:18;38.53;;;24.00;;
30010;SDS011;16851;53.564;8.112;2023-02-08T09:11:22;39.07;;;24.13;;
30010;SDS011;16851;53.564;8.112;2023-02-08T09:16:27;36.13;;;22.87;;
30010;SDS011;16851;53.564;8.112;2023-02-08T09:21:33;37.43;;;23.40;;
30010;SDS011;16851;53.564;8.112;2023-02-08T09:26:37;39.10;;;22.80;;
30010;SDS011;16851;53.564;8.112;2023-02-08T09:31:47;32.73;;;21.37;;
30010;SDS011;16851;53.564;8.112;2023-02-08T09:36:50;33.50;;;22.97;;
30010;SDS011;16851;53.564;8.112;2023-02-08T09:47:13;33.37;;;21.80;;
30010;SDS011;16851;53.564;8.112;2023-02-08T09:52:23;33.83;;;22.90;;
30010;SDS011;16851;53.564;8.112;2023-02-08T09:57:29;32.63;;;22.13;;
30010;SDS011;16851;53.564;8.112;2023-02-08T10:02:33;33.70;;;21.27;;
30010;SDS011;16851;53.564;8.112;2023-02-08T10:07:42;34.80;;;19.90;;
30010;SDS011;16851;53.564;8.112;2023-02-08T10:23:21;29.43;;;18.83;;
30010;SDS011;16851;53.564;8.112;2023-02-08T10:28:53;27.07;;;18.40;;
30010;SDS011;16851;53.564;8.112;2023-02-08T10:39:27;24.83;;;16.10;;
30010;SDS011;16851;53.564;8.112;2023-02-08T10:55:38;24.93;;;16.90;;
30010;SDS011;16851;53.564;8.112;2023-02-08T11:00:45;28.33;;;17.63;;
30010;SDS011;16851;53.564;8.112;2023-02-08T11:05:56;23.50;;;16.20;;
30010;SDS011;16851;53.564;8.112;2023-02-08T11:16:24;26.00;;;17.63;;
30010;SDS011;16851;53.564;8.112;2023-02-08T11:21:38;27.83;;;17.20;;
30010;SDS011;16851;53.564;8.112;2023-02-08T11:26:40;22.90;;;15.30;;
30010;SDS011;16851;53.564;8.112;2023-02-08T11:32:02;25.33;;;16.07;;
30010;SDS011;16851;53.564;8.112;2023-02-08T11:37:19;20.63;;;14.83;;
30010;SDS011;16851;53.564;8.112;2023-02-08T11:42:39;23.30;;;16.70;;
30010;SDS011;16851;53.564;8.112;2023-02-08T11:47:45;24.23;;;14.60;;
30010;SDS011;16851;53.564;8.112;2023-02-08T11:52:54;24.77;;;17.30;;
30010;SDS011;16851;53.564;8.112;2023-02-08T11:58:24;21.83;;;15.20;;
30010;SDS011;16851;53.564;8.112;2023-02-08T12:03:36;21.20;;;15.23;;
30010;SDS011;16851;53.564;8.112;2023-02-08T12:08:55;19.97;;;14.97;;
30010;SDS011;16851;53.564;8.112;2023-02-08T12:24:49;22.30;;;16.03;;
30010;SDS011;16851;53.564;8.112;2023-02-08T12:41:08;24.13;;;15.97;;
30010;SDS011;16851;53.564;8.112;2023-02-08T12:57:20;21.13;;;15.47;;
30010;SDS011;16851;53.564;8.112;2023-02-08T13:13:34;21.33;;;15.27;;
30010;SDS011;16851;53.564;8.112;2023-02-08T13:18:54;18.80;;;14.77;;
30010;SDS011;16851;53.564;8.112;2023-02-08T13:24:05;19.40;;;13.77;;
30010;SDS011;16851;53.564;8.112;2023-02-08T13:29:16;18.50;;;14.27;;
30010;SDS011;16851;53.564;8.112;2023-02-08T13:44:37;20.33;;;12.93;;
30010;SDS011;16851;53.564;8.112;2023-02-08T14:00:36;20.02;;;11.38;;
30010;SDS011;16851;53.564;8.112;2023-02-08T14:06:03;17.02;;;11.27;;
30010;SDS011;16851;53.564;8.112;2023-02-08T14:16:27;14.73;;;10.00;;
30010;SDS011;16851;53.564;8.112;2023-02-08T14:26:47;14.63;;;10.20;;
30010;SDS011;16851;53.564;8.112;2023-02-08T14:31:52;13.50;;;9.55;;
30010;SDS011;16851;53.564;8.112;2023-02-08T14:37:03;14.80;;;9.60;;
30010;SDS011;16851;53.564;8.112;2023-02-08T14:42:14;13.38;;;9.38;;
30010;SDS011;16851;53.564;8.112;2023-02-08T14:58:20;11.80;;;9.35;;
30010;SDS011;16851;53.564;8.112;2023-02-08T15:03:30;10.93;;;8.73;;
30010;SDS011;16851;53.564;8.112;2023-02-08T15:08:35;12.85;;;8.43;;
30010;SDS011;16851;53.564;8.112;2023-02-08T15:13:38;16.50;;;9.07;;
30010;SDS011;16851;53.564;8.112;2023-02-08T15:18:43;11.50;;;8.57;;
30010;SDS011;16851;53.564;8.112;2023-02-08T15:29:14;12.13;;;7.83;;
30010;SDS011;16851;53.564;8.112;2023-02-08T15:34:22;10.23;;;6.87;;
30010;SDS011;16851;53.564;8.112;2023-02-08T15:39:35;9.73;;;6.60;;
30010;SDS011;16851;53.564;8.112;2023-02-08T15:44:44;14.17;;;7.60;;
30010;SDS011;16851;53.564;8.112;2023-02-08T15:49:47;6.90;;;5.53;;
30010;SDS011;16851;53.564;8.112;2023-02-08T15:54:58;8.33;;;4.97;;
30010;SDS011;16851;53.564;8.112;2023-02-08T16:00:04;7.97;;;5.57;;
30010;SDS011;16851;53.564;8.112;2023-02-08T16:05:29;9.63;;;6.67;;
30010;SDS011;16851;53.564;8.112;2023-02-08T16:10:33;11.47;;;6.30;;
30010;SDS011;16851;53.564;8.112;2023-02-08T16:15:43;13.13;;;8.57;;
30010;SDS011;16851;53.564;8.112;2023-02-08T16:20:54;16.77;;;10.00;;
30010;SDS011;16851;53.564;8.112;2023-02-08T16:26:08;17.87;;;13.10;;
30010;SDS011;16851;53.564;8.112;2023-02-08T16:31:13;14.47;;;10.10;;
30010;SDS011;16851;53.564;8.112;2023-02-08T16:36:35;12.43;;;7.13;;
30010;SDS011;16851;53.564;8.112;2023-02-08T16:42:04;59.50;;;36.03;;
30010;SDS011;16851;53.564;8.112;2023-02-08T16:47:23;20.00;;;10.87;;
30010;SDS011;16851;53.564;8.112;2023-02-08T16:52:30;10.07;;;5.90;;
30010;SDS011;16851;53.564;8.112;2023-02-08T16:57:39;11.50;;;7.63;;
30010;SDS011;16851;53.564;8.112;2023-02-08T17:02:51;8.03;;;5.97;;
30010;SDS011;16851;53.564;8.112;2023-02-08T17:07:58;8.60;;;5.53;;
30010;SDS011;16851;53.564;8.112;2023-02-08T17:13:03;12.50;;;7.33;;
30010;SDS011;16851;53.564;8.112;2023-02-08T17:18:22;9.50;;;6.50;;
30010;SDS011;16851;53.564;8.112;2023-02-08T17:23:26;11.90;;;6.47;;
30010;SDS011;16851;53.564;8.112;2023-02-08T17:28:31;24.13;;;11.17;;
30010;SDS011;16851;53.564;8.112;2023-02-08T17:33:39;25.97;;;12.03;;
30010;SDS011;16851;53.564;8.112;2023-02-08T17:38:44;21.77;;;11.33;;
30010;SDS011;16851;53.564;8.112;2023-02-08T17:43:53;25.50;;;12.23;;
30010;SDS011;16851;53.564;8.112;2023-02-08T17:48:56;20.77;;;12.17;;
30010;SDS011;16851;53.564;8.112;2023-02-08T17:54:03;20.13;;;12.80;;
30010;SDS011;16851;53.564;8.112;2023-02-08T17:59:07;22.43;;;14.17;;
30010;SDS011;16851;53.564;8.112;2023-02-08T18:04:12;23.77;;;14.47;;
30010;SDS011;16851;53.564;8.112;2023-02-08T18:09:13;25.50;;;15.93;;
30010;SDS011;16851;53.564;8.112;2023-02-08T18:14:17;26.80;;;16.03;;
30010;SDS011;16851;53.564;8.112;2023-02-08T18:19:22;34.07;;;17.97;;
30010;SDS011;16851;53.564;8.112;2023-02-08T18:24:24;28.47;;;17.67;;
30010;SDS011;16851;53.564;8.112;2023-02-08T18:29:28;32.33;;;18.27;;
30010;SDS011;16851;53.564;8.112;2023-02-08T18:34:34;33.53;;;17.10;;
30010;SDS011;16851;53.564;8.112;2023-02-08T18:39:40;29.20;;;16.87;;
30010;SDS011;16851;53.564;8.112;2023-02-08T18:44:42;29.87;;;18.13;;
30010;SDS011;16851;53.564;8.112;2023-02-08T18:49:51;27.33;;;16.90;;
30010;SDS011;16851;53.564;8.112;2023-02-08T18:54:54;27.07;;;16.30;;
30010;SDS011;16851;53.564;8.112;2023-02-08T19:00:01;29.30;;;17.03;;
30010;SDS011;16851;53.564;8.112;2023-02-08T19:05:04;37.73;;;17.93;;
30010;SDS011;16851;53.564;8.112;2023-02-08T19:10:08;34.07;;;17.07;;
30010;SDS011;16851;53.564;8.112;2023-02-08T19:15:11;33.00;;;17.70;;
30010;SDS011;16851;53.564;8.112;2023-02-08T19:20:15;33.77;;;18.40;;
30010;SDS011;16851;53.564;8.112;2023-02-08T19:25:24;33.03;;;18.30;;
30010;SDS011;16851;53.564;8.112;2023-02-08T19:30:29;30.93;;;17.97;;
30010;SDS011;16851;53.564;8.112;2023-02-08T19:35:37;35.50;;;17.40;;
30010;SDS011;16851;53.564;8.112;2023-02-08T19:40:43;29.00;;;17.23;;
30010;SDS011;16851;53.564;8.112;2023-02-08T19:45:47;31.30;;;16.83;;
30010;SDS011;16851;53.564;8.112;2023-02-08T19:50:53;34.03;;;17.53;;
30010;SDS011;16851;53.564;8.112;2023-02-08T19:56:02;29.03;;;15.90;;
30010;SDS011;16851;53.564;8.112;2023-02-08T20:01:07;30.10;;;15.37;;
30010;SDS011;16851;53.564;8.112;2023-02-08T20:11:20;33.47;;;16.17;;
30010;SDS011;16851;53.564;8.112;2023-02-08T20:16:27;27.73;;;14.87;;
30010;SDS011;16851;53.564;8.112;2023-02-08T20:21:34;25.97;;;14.30;;
30010;SDS011;16851;53.564;8.112;2023-02-08T20:26:42;22.73;;;12.70;;
30010;SDS011;16851;53.564;8.112;2023-02-08T20:31:51;25.33;;;14.47;;
30010;SDS011;16851;53.564;8.112;2023-02-08T20:37:02;27.63;;;14.87;;
30010;SDS011;16851;53.564;8.112;2023-02-08T20:42:08;26.47;;;14.13;;
30010;SDS011;16851;53.564;8.112;2023-02-08T20:47:13;25.57;;;14.53;;
30010;SDS011;16851;53.564;8.112;2023-02-08T20:52:19;32.40;;;17.30;;
30010;SDS011;16851;53.564;8.112;2023-02-08T20:57:24;35.87;;;16.57;;
30010;SDS011;16851;53.564;8.112;2023-02-08T21:02:26;41.07;;;18.63;;
30010;SDS011;16851;53.564;8.112;2023-02-08T21:07:30;46.57;;;20.40;;
30010;SDS011;16851;53.564;8.112;2023-02-08T21:12:34;55.50;;;22.47;;
30010;SDS011;16851;53.564;8.112;2023-02-08T21:17:40;53.03;;;21.77;;
30010;SDS011;16851;53.564;8.112;2023-02-08T21:22:44;42.43;;;20.63;;
30010;SDS011;16851;53.564;8.112;2023-02-08T21:27:48;56.10;;;23.10;;
30010;SDS011;16851;53.564;8.112;2023-02-08T21:32:54;47.73;;;20.73;;
30010;SDS011;16851;53.564;8.112;2023-02-08T21:37:56;42.43;;;19.87;;
30010;SDS011;16851;53.564;8.112;2023-02-08T21:43:03;33.73;;;18.70;;
30010;SDS011;16851;53.564;8.112;2023-02-08T21:48:07;28.50;;;15.43;;
30010;SDS011;16851;53.564;8.112;2023-02-08T21:53:12;26.60;;;14.87;;
30010;SDS011;16851;53.564;8.112;2023-02-08T21:58:33;23.67;;;13.73;;
30010;SDS011;16851;53.564;8.112;2023-02-08T22:03:37;27.03;;;13.97;;
30010;SDS011;16851;53.564;8.112;2023-02-08T22:08:40;25.37;;;14.70;;
30010;SDS011;16851;53.564;8.112;2023-02-08T22:13:46;25.50;;;14.17;;
30010;SDS011;16851;53.564;8.112;2023-02-08T22:18:53;25.53;;;14.20;;
30010;SDS011;16851;53.564;8.112;2023-02-08T22:23:57;28.50;;;15.03;;
30010;SDS011;16851;53.564;8.112;2023-02-08T22:29:07;31.03;;;15.73;;
30010;SDS011;16851;53.564;8.112;2023-02-08T22:34:09;27.23;;;16.20;;
30010;SDS011;16851;53.564;8.112;2023-02-08T22:39:10;28.00;;;14.57;;
30010;SDS011;16851;53.564;8.112;2023-02-08T22:44:14;25.23;;;14.80;;
30010;SDS011;16851;53.564;8.112;2023-02-08T22:49:18;26.83;;;14.93;;
30010;SDS011;16851;53.564;8.112;2023-02-08T22:54:20;31.33;;;15.33;;
30010;SDS011;16851;53.564;8.112;2023-02-08T22:59:21;25.13;;;14.57;;
30010;SDS011;16851;53.564;8.112;2023-02-08T23:04:26;28.53;;;15.47;;
30010;SDS011;16851;53.564;8.112;2023-02-08T23:09:29;28.13;;;15.27;;
30010;SDS011;16851;53.564;8.112;2023-02-08T23:14:33;30.40;;;14.73;;
30010;SDS011;16851;53.564;8.112;2023-02-08T23:19:40;26.13;;;15.07;;
30010;SDS011;16851;53.564;8.112;2023-02-08T23:24:42;24.43;;;14.03;;
30010;SDS011;16851;53.564;8.112;2023-02-08T23:29:49;27.20;;;14.63;;
30010;SDS011;16851;53.564;8.112;2023-02-08T23:34:51;22.80;;;14.30;;
30010;SDS011;16851;53.564;8.112;2023-02-08T23:39:53;25.57;;;13.43;;
30010;SDS011;16851;53.564;8.112;2023-02-08T23:44:57;24.30;;;14.20;;
30010;SDS011;16851;53.564;8.112;2023-02-08T23:50:00;28.47;;;13.60;;
30010;SDS011;16851;53.564;8.112;2023-02-08T23:55:03;25.90;;;13.87;;
